Time;durP1;ratioP1;P1;durP2;ratioP2;P2;SDS_P1;SDS_P2;PMS_P1;PMS_P2;Temp;Humidity;BMP_temperature;BMP_pressure;BME280_temperature;BME280_humidity;BME280_pressure;Samples;Min_cycle;Max_cycle;Signal;HPM_P1;HPM_P2
2021/09/27 00:00:55;;;;;;;9.52;6.00;;;;;;;17.50;86.01;100398.22;5058218;28;20036;-76
2021/09/27 00:03:24;;;;;;;10.88;5.65;;;;;;;17.42;86.24;100395.31;5056745;28;20052;-77
2021/09/27 00:05:53;;;;;;;9.27;5.97;;;;;;;17.51;85.78;100391.81;5056314;28;20101;-74
2021/09/27 00:08:22;;;;;;;10.18;6.10;;;;;;;17.53;85.66;100399.78;5056364;28;20041;-72
2021/09/27 00:10:54;;;;;;;9.18;6.40;;;;;;;17.54;85.87;100388.84;5055993;28;20432;-72
2021/09/27 00:13:29;;;;;;;8.88;5.97;;;;;;;17.36;86.38;100383.22;5056386;28;20045;-72
2021/09/27 00:15:58;;;;;;;9.73;5.97;;;;;;;17.40;86.56;100375.72;5056044;28;20052;-72
2021/09/27 00:18:26;;;;;;;7.72;6.10;;;;;;;17.33;87.40;100380.78;5055936;28;20044;-71
2021/09/27 00:20:58;;;;;;;8.02;5.88;;;;;;;17.27;87.49;100369.66;5055899;28;20102;-72
2021/09/27 00:23:28;;;;;;;10.18;6.57;;;;;;;17.24;88.00;100378.03;5056009;28;20379;-72
2021/09/27 00:25:57;;;;;;;11.15;6.80;;;;;;;17.15;87.99;100372.44;5055244;28;20037;-73
2021/09/27 00:28:27;;;;;;;9.98;6.25;;;;;;;17.19;87.83;100361.41;5055584;28;20123;-73
2021/09/27 00:30:55;;;;;;;9.30;6.10;;;;;;;17.14;88.12;100365.34;5053684;28;20409;-73
2021/09/27 00:33:25;;;;;;;9.43;6.05;;;;;;;17.09;88.73;100367.59;5055160;28;20041;-72
2021/09/27 00:35:54;;;;;;;9.95;6.53;;;;;;;16.99;89.00;100369.38;5055037;28;20056;-73
2021/09/27 00:38:24;;;;;;;9.48;6.55;;;;;;;17.00;89.29;100362.13;5055113;28;20068;-73
2021/09/27 00:40:55;;;;;;;8.70;5.97;;;;;;;17.20;88.56;100357.72;5054917;28;20475;-77
2021/09/27 00:43:23;;;;;;;10.02;6.70;;;;;;;17.12;88.71;100356.53;5053264;28;20053;-77
2021/09/27 00:45:57;;;;;;;13.18;5.82;;;;;;;17.25;88.29;100352.78;5054859;28;20428;-77
2021/09/27 00:48:26;;;;;;;9.68;6.03;;;;;;;17.29;88.25;100349.69;5055143;28;20049;-76
2021/09/27 00:50:59;;;;;;;9.02;6.10;;;;;;;17.22;88.32;100353.06;5054778;28;20064;-76
2021/09/27 00:53:32;;;;;;;9.85;6.43;;;;;;;17.24;88.24;100348.38;5054848;28;20052;-76
2021/09/27 00:56:02;;;;;;;10.68;6.60;;;;;;;17.24;88.28;100342.97;5054395;28;20068;-76
2021/09/27 00:58:32;;;;;;;10.35;6.20;;;;;;;17.18;88.53;100339.00;5054906;28;20049;-76
2021/09/27 01:01:03;;;;;;;7.97;6.07;;;;;;;17.10;88.85;100341.50;5054409;28;20048;-75
2021/09/27 01:03:35;;;;;;;10.07;6.50;;;;;;;17.05;89.26;100341.88;5054690;28;20051;-76
2021/09/27 01:06:17;;;;;;;8.07;5.82;;;;;;;17.09;89.21;100343.34;5054369;28;20048;-78
2021/09/27 01:09:04;;;;;;;8.95;6.53;;;;;;;16.99;89.80;100328.94;5054650;28;20049;-77
2021/09/27 01:11:51;;;;;;;9.45;6.63;;;;;;;16.75;90.96;100337.25;5054874;28;20094;-77
2021/09/27 01:14:31;;;;;;;9.57;6.30;;;;;;;16.69;91.48;100342.28;5054392;28;20500;-77
2021/09/27 01:17:12;;;;;;;9.05;6.80;;;;;;;16.60;91.79;100344.78;5054291;28;20045;-77
2021/09/27 01:20:31;;;;;;;11.65;6.72;;;;;;;16.54;92.22;100345.28;5054495;28;20037;-76
2021/09/27 01:23:35;;;;;;;10.73;7.10;;;;;;;16.57;92.34;100344.16;5047833;28;20060;-77
2021/09/27 01:26:32;;;;;;;9.93;6.70;;;;;;;16.82;90.97;100332.22;5031455;28;20049;-74
2021/09/27 01:29:33;;;;;;;10.82;6.68;;;;;;;16.97;90.32;100322.81;5052867;28;20061;-74
2021/09/27 01:32:24;;;;;;;9.95;6.47;;;;;;;16.80;91.30;100323.41;5050823;28;20060;-74
2021/09/27 01:35:03;;;;;;;12.55;6.75;;;;;;;16.75;91.37;100315.72;5053717;28;20053;-81
2021/09/27 01:37:39;;;;;;;11.18;6.80;;;;;;;16.65;91.82;100316.59;5053904;28;20124;-77
2021/09/27 01:40:16;;;;;;;11.77;7.20;;;;;;;16.54;92.52;100326.44;5053595;28;20079;-76
2021/09/27 01:42:53;;;;;;;8.77;6.40;;;;;;;16.53;92.40;100324.72;5053940;28;20077;-78
2021/09/27 01:45:29;;;;;;;10.05;6.85;;;;;;;16.39;93.32;100325.00;5053978;28;20082;-78
2021/09/27 01:48:06;;;;;;;9.85;6.43;;;;;;;16.33;93.89;100320.16;5053592;28;20052;-78
2021/09/27 01:50:40;;;;;;;9.65;6.93;;;;;;;16.33;94.11;100320.16;5052444;28;20057;-74
2021/09/27 01:53:14;;;;;;;9.90;6.90;;;;;;;16.34;94.13;100326.38;5053376;28;20049;-74
2021/09/27 01:55:48;;;;;;;11.30;6.85;;;;;;;16.36;94.21;100325.25;5052714;28;20120;-74
2021/09/27 01:58:26;;;;;;;9.10;6.40;;;;;;;16.67;92.91;100322.69;5053306;28;20068;-74
2021/09/27 02:01:00;;;;;;;10.98;6.57;;;;;;;16.39;93.33;100325.00;5053456;28;20041;-76
2021/09/27 02:03:36;;;;;;;9.23;6.80;;;;;;;16.48;93.49;100318.00;5053462;28;20444;-74
2021/09/27 02:06:10;;;;;;;9.20;6.65;;;;;;;16.34;94.08;100327.22;5053120;28;20060;-74
2021/09/27 02:08:44;;;;;;;8.25;6.30;;;;;;;16.48;93.23;100326.94;5053289;28;20045;-75
2021/09/27 02:11:19;;;;;;;10.50;7.45;;;;;;;16.30;94.27;100339.22;5053222;28;20041;-74
2021/09/27 02:13:54;;;;;;;11.85;6.93;;;;;;;16.30;94.38;100341.91;5053578;28;20095;-74
2021/09/27 02:16:30;;;;;;;9.55;6.40;;;;;;;16.35;94.11;100345.09;5053344;28;20110;-74
2021/09/27 02:19:05;;;;;;;10.60;7.38;;;;;;;16.24;94.76;100343.28;5053103;28;20083;-74
2021/09/27 02:21:38;;;;;;;10.60;7.35;;;;;;;16.25;95.30;100344.16;5053477;28;20098;-74
2021/09/27 02:24:17;;;;;;;11.63;7.78;;;;;;;16.21;95.17;100348.06;5053090;28;20041;-74
2021/09/27 02:26:46;;;;;;;13.85;7.30;;;;;;;16.40;94.70;100342.00;5053262;28;20501;-74
2021/09/27 02:29:15;;;;;;;12.10;7.88;;;;;;;16.43;93.90;100348.00;5052641;28;20552;-74
2021/09/27 02:31:50;;;;;;;9.65;7.45;;;;;;;16.21;95.10;100343.56;5052852;28;20044;-74
2021/09/27 02:34:29;;;;;;;10.40;7.40;;;;;;;16.15;95.92;100333.28;5052751;28;20086;-74
2021/09/27 02:37:02;;;;;;;9.95;7.30;;;;;;;16.35;94.66;100328.94;5052803;28;20089;-75
2021/09/27 02:39:35;;;;;;;11.40;6.88;;;;;;;16.42;93.80;100330.16;5053069;28;20478;-74
2021/09/27 02:42:09;;;;;;;9.70;6.82;;;;;;;16.29;94.64;100334.81;5052473;28;20047;-75
2021/09/27 02:44:38;;;;;;;10.05;7.05;;;;;;;16.27;94.74;100339.47;5053130;28;20128;-74
2021/09/27 02:47:10;;;;;;;10.60;7.50;;;;;;;16.25;94.88;100330.69;5052610;28;20486;-75
2021/09/27 02:49:44;;;;;;;12.55;7.70;;;;;;;16.25;94.81;100328.84;5053272;28;20099;-74
2021/09/27 02:52:15;;;;;;;9.40;7.45;;;;;;;16.28;94.60;100330.44;5052709;28;20045;-72
2021/09/27 02:54:50;;;;;;;9.63;7.53;;;;;;;16.16;95.26;100328.75;5052792;28;20051;-72
2021/09/27 02:57:35;;;;;;;12.73;7.93;;;;;;;16.17;95.41;100327.78;5052733;28;20053;-72
2021/09/27 03:00:09;;;;;;;10.52;7.55;;;;;;;16.13;95.38;100312.88;5052395;28;20041;-72
2021/09/27 03:02:46;;;;;;;10.70;7.40;;;;;;;16.14;95.45;100314.56;5052628;28;20129;-72
2021/09/27 03:05:26;;;;;;;9.93;6.95;;;;;;;16.26;94.89;100327.00;5051049;28;20063;-72
2021/09/27 03:08:15;;;;;;;9.27;6.85;;;;;;;16.35;94.49;100328.94;5055928;28;20076;-72
2021/09/27 03:10:57;;;;;;;10.20;6.80;;;;;;;16.37;93.96;100332.34;5056750;28;20041;-74
2021/09/27 03:13:34;;;;;;;11.88;7.43;;;;;;;16.40;94.00;100331.25;5056735;28;20087;-74
2021/09/27 03:16:16;;;;;;;11.60;7.50;;;;;;;16.21;94.66;100321.13;5056647;28;20087;-74
2021/09/27 03:19:17;;;;;;;11.15;7.10;;;;;;;16.35;94.21;100322.72;5056167;28;20371;-73
2021/09/27 03:21:56;;;;;;;9.55;7.25;;;;;;;16.19;95.14;100320.41;5056452;28;20401;-73
2021/09/27 03:24:40;;;;;;;10.82;8.00;;;;;;;16.13;95.29;100319.09;5056594;28;20089;-74
2021/09/27 03:27:16;;;;;;;12.13;7.82;;;;;;;15.91;96.47;100325.38;5056192;28;20074;-74
2021/09/27 03:29:56;;;;;;;11.85;7.88;;;;;;;15.85;97.36;100325.88;5056408;28;20559;-74
2021/09/27 03:32:37;;;;;;;10.70;8.10;;;;;;;15.98;97.22;100326.56;5056707;28;20106;-74
2021/09/27 03:35:13;;;;;;;11.18;8.02;;;;;;;16.17;96.33;100331.31;5055859;28;20511;-75
2021/09/27 03:37:58;;;;;;;11.18;7.07;;;;;;;16.25;95.70;100334.22;5056419;28;20041;-74
2021/09/27 03:40:41;;;;;;;10.10;7.43;;;;;;;16.18;96.57;100332.16;5056600;28;20473;-77
2021/09/27 03:43:22;;;;;;;12.75;7.95;;;;;;;16.19;96.75;100329.34;5055989;28;20037;-76
2021/09/27 03:45:59;;;;;;;12.32;8.35;;;;;;;16.36;95.54;100324.41;5056116;28;20045;-76
2021/09/27 03:48:35;;;;;;;12.68;7.50;;;;;;;16.36;95.55;100308.25;5056389;28;20060;-77
2021/09/27 03:51:11;;;;;;;10.88;7.75;;;;;;;16.34;95.75;100311.09;5055602;28;20387;-77
2021/09/27 03:53:47;;;;;;;12.50;7.78;;;;;;;16.27;96.04;100308.03;5055994;28;20056;-76
2021/09/27 03:56:23;;;;;;;11.88;8.00;;;;;;;16.35;95.42;100309.25;5055438;28;20089;-77
2021/09/27 03:58:58;;;;;;;13.30;8.32;;;;;;;16.24;95.96;100304.75;5056016;28;20041;-75
2021/09/27 04:01:37;;;;;;;10.88;7.82;;;;;;;16.12;96.93;100303.94;5055809;28;20045;-75
2021/09/27 04:04:17;;;;;;;12.43;8.07;;;;;;;16.12;97.41;100305.78;5055787;28;20077;-74
2021/09/27 04:07:02;;;;;;;13.63;7.60;;;;;;;16.12;97.56;100300.41;5055837;28;20037;-72
2021/09/27 04:09:42;;;;;;;13.02;7.78;;;;;;;16.12;96.98;100300.41;5055575;28;20037;-73
2021/09/27 04:12:27;;;;;;;14.93;8.45;;;;;;;16.11;97.45;100304.03;5054324;28;20045;-74
2021/09/27 04:15:10;;;;;;;16.08;8.43;;;;;;;16.00;98.02;100305.78;5055734;28;20048;-74
2021/09/27 04:17:50;;;;;;;12.75;8.30;;;;;;;16.09;98.20;100312.25;5055340;28;20049;-74
2021/09/27 04:20:25;;;;;;;15.18;8.38;;;;;;;16.16;97.36;100312.59;5054948;28;20466;-73
2021/09/27 04:23:09;;;;;;;12.93;8.65;;;;;;;16.25;96.86;100317.22;5055498;28;20043;-73
2021/09/27 04:25:50;;;;;;;12.75;8.70;;;;;;;16.29;96.63;100313.28;5055346;28;20052;-72
2021/09/27 04:28:51;;;;;;;15.50;8.65;;;;;;;16.27;96.91;100320.66;5054915;28;20045;-72
2021/09/27 04:31:32;;;;;;;15.90;8.05;;;;;;;16.30;96.80;100315.00;5054801;28;20473;-74
2021/09/27 04:34:14;;;;;;;11.52;8.30;;;;;;;16.49;95.39;100325.09;5055214;28;20102;-74
2021/09/27 04:36:46;;;;;;;13.35;8.80;;;;;;;16.41;95.55;100323.06;5055214;28;20041;-74
2021/09/27 04:39:16;;;;;;;15.38;8.60;;;;;;;16.45;95.33;100323.66;5054660;28;20402;-69
2021/09/27 04:42:04;;;;;;;11.63;8.50;;;;;;;16.59;94.65;100332.25;5055077;28;20056;-71
2021/09/27 04:44:46;;;;;;;14.02;8.60;;;;;;;16.55;94.96;100329.97;5054904;28;20371;-70
2021/09/27 04:47:24;;;;;;;14.13;9.30;;;;;;;16.57;95.15;100328.84;5054721;28;20132;-70
2021/09/27 04:50:06;;;;;;;13.98;8.98;;;;;;;16.49;95.74;100327.78;5054043;28;20103;-70
2021/09/27 04:52:44;;;;;;;11.63;8.93;;;;;;;16.37;96.33;100328.81;5054761;28;20041;-70
2021/09/27 04:55:25;;;;;;;13.43;8.95;;;;;;;16.34;96.58;100332.63;5054233;28;20045;-73
2021/09/27 04:58:18;;;;;;;10.93;8.20;;;;;;;16.52;95.50;100330.25;5054593;28;20067;-71
2021/09/27 05:01:02;;;;;;;13.18;9.48;;;;;;;16.50;95.56;100333.06;5054740;28;20098;-69
2021/09/27 05:03:53;;;;;;;12.45;8.88;;;;;;;16.47;96.20;100333.31;5054801;28;20041;-69
2021/09/27 05:06:38;;;;;;;12.23;8.07;;;;;;;16.48;95.50;100335.00;5053995;28;20049;-69
2021/09/27 05:09:21;;;;;;;11.95;7.93;;;;;;;16.75;93.12;100348.03;5054056;28;20503;-70
2021/09/27 05:12:11;;;;;;;15.30;8.35;;;;;;;16.80;93.42;100348.50;5054218;28;20049;-72
2021/09/27 05:14:59;;;;;;;12.57;8.05;;;;;;;16.84;92.66;100349.09;5054209;28;20041;-70
2021/09/27 05:17:54;;;;;;;12.45;7.90;;;;;;;16.98;91.77;100332.59;5052756;28;20482;-73
2021/09/27 05:20:43;;;;;;;10.95;7.45;;;;;;;17.08;91.52;100330.84;5053875;28;20530;-73
2021/09/27 05:23:19;;;;;;;14.15;7.88;;;;;;;17.05;91.90;100328.41;5054288;28;20045;-72
2021/09/27 05:26:15;;;;;;;10.13;7.45;;;;;;;17.03;92.17;100319.59;5054023;28;20095;-72
2021/09/27 05:28:56;;;;;;;13.00;8.13;;;;;;;16.97;91.79;100320.13;5053788;28;20049;-70
2021/09/27 05:31:41;;;;;;;11.45;7.60;;;;;;;17.03;91.41;100322.28;5053864;28;20041;-70
2021/09/27 05:34:21;;;;;;;13.57;7.78;;;;;;;17.13;91.45;100319.66;5053314;28;20045;-70
2021/09/27 05:37:10;;;;;;;9.85;6.90;;;;;;;17.14;91.12;100313.28;5053741;28;20119;-70
2021/09/27 05:39:55;;;;;;;13.40;7.90;;;;;;;17.21;90.70;100321.69;5053858;28;20075;-72
2021/09/27 05:42:33;;;;;;;10.50;7.30;;;;;;;17.29;90.21;100319.19;5053125;28;20394;-69
2021/09/27 05:45:13;;;;;;;10.70;7.43;;;;;;;17.37;89.54;100313.97;5053498;28;20052;-69
2021/09/27 05:47:49;;;;;;;11.45;7.07;;;;;;;17.31;90.14;100314.50;5053656;28;20053;-70
2021/09/27 05:50:26;;;;;;;10.88;7.25;;;;;;;17.36;89.47;100314.94;5053521;28;20453;-73
2021/09/27 05:53:03;;;;;;;10.32;6.78;;;;;;;17.38;89.13;100313.84;5053633;28;20037;-73
2021/09/27 05:55:37;;;;;;;12.45;7.53;;;;;;;17.47;89.10;100306.81;5053202;28;20489;-73
2021/09/27 05:58:12;;;;;;;12.23;7.13;;;;;;;17.58;88.46;100303.16;5052115;28;20159;-73
2021/09/27 06:00:47;;;;;;;9.65;6.97;;;;;;;17.50;88.69;100311.91;5053381;28;20068;-73
2021/09/27 06:03:36;;;;;;;11.85;7.25;;;;;;;17.56;89.09;100327.53;5053333;28;20478;-71
2021/09/27 06:06:13;;;;;;;12.23;7.57;;;;;;;17.69;87.70;100325.50;5053206;28;20132;-71
2021/09/27 06:08:50;;;;;;;11.00;7.60;;;;;;;17.63;88.62;100334.09;5053582;28;20041;-72
2021/09/27 06:11:26;;;;;;;11.00;7.60;;;;;;;17.62;88.79;100347.72;5053102;28;20102;-72
2021/09/27 06:13:56;;;;;;;9.25;6.75;;;;;;;17.65;88.66;100356.41;5053261;28;20045;-72
2021/09/27 06:16:40;;;;;;;11.93;7.53;;;;;;;17.66;88.65;100362.63;5052670;28;20155;-72
2021/09/27 06:19:18;;;;;;;11.82;7.45;;;;;;;17.70;88.43;100370.38;5053132;28;20053;-77
2021/09/27 06:22:07;;;;;;;16.30;8.10;;;;;;;17.65;88.81;100371.72;5053367;28;20051;-68
2021/09/27 06:24:46;;;;;;;13.55;8.00;;;;;;;17.64;88.85;100368.19;5052894;28;20124;-68
2021/09/27 06:27:28;;;;;;;13.10;8.30;;;;;;;17.67;89.10;100373.31;5052813;28;20049;-69
2021/09/27 06:30:04;;;;;;;12.55;8.32;;;;;;;17.69;89.03;100370.50;5051774;28;20049;-69
2021/09/27 06:32:42;;;;;;;12.25;8.07;;;;;;;17.64;89.05;100373.56;5052417;28;20539;-70
2021/09/27 06:35:17;;;;;;;12.23;7.90;;;;;;;17.61;89.25;100376.53;5052757;28;20440;-75
2021/09/27 06:37:48;;;;;;;11.40;7.22;;;;;;;17.62;90.16;100370.16;5053067;28;20544;-70
2021/09/27 06:40:17;;;;;;;11.02;8.32;;;;;;;17.61;90.08;100376.53;5052767;28;20079;-69
2021/09/27 06:42:47;;;;;;;11.65;7.90;;;;;;;17.61;89.67;100379.25;5052115;28;20118;-69
2021/09/27 06:45:15;;;;;;;11.43;7.97;;;;;;;17.79;90.04;100365.16;5052600;28;20056;-69
2021/09/27 06:47:46;;;;;;;11.40;7.88;;;;;;;17.82;89.76;100359.50;5052735;28;20122;-70
2021/09/27 06:50:16;;;;;;;14.13;8.18;;;;;;;17.73;89.34;100372.78;5053461;28;20045;-71
2021/09/27 06:52:44;;;;;;;12.05;7.47;;;;;;;17.80;89.89;100377.66;5053504;28;20041;-70
2021/09/27 06:55:13;;;;;;;13.13;8.77;;;;;;;17.80;90.56;100378.50;5052704;28;20118;-71
2021/09/27 06:57:41;;;;;;;12.60;8.98;;;;;;;17.70;90.80;100386.56;5052668;28;20073;-71
2021/09/27 07:00:12;;;;;;;13.73;9.45;;;;;;;17.61;91.56;100395.44;5053231;28;20438;-70
2021/09/27 07:02:40;;;;;;;15.35;9.60;;;;;;;17.57;91.86;100393.16;5052789;28;20055;-70
2021/09/27 07:05:09;;;;;;;12.98;9.57;;;;;;;17.55;93.27;100390.56;5052579;28;20063;-71
2021/09/27 07:07:40;;;;;;;14.93;10.25;;;;;;;17.55;93.31;100387.00;5052738;28;20045;-70
2021/09/27 07:10:13;;;;;;;17.95;10.68;;;;;;;17.85;90.65;100389.75;5052578;28;20041;-70
2021/09/27 07:12:42;;;;;;;17.77;11.35;;;;;;;17.64;93.67;100388.91;5052760;28;20041;-70
2021/09/27 07:15:11;;;;;;;17.48;11.48;;;;;;;17.54;95.47;100398.78;5052204;28;20131;-69
2021/09/27 07:17:42;;;;;;;17.88;12.35;;;;;;;17.52;96.33;100396.22;5052068;28;20463;-70
2021/09/27 07:20:13;;;;;;;21.83;12.77;;;;;;;17.48;98.60;100397.50;5052031;28;20556;-70
2021/09/27 07:22:43;;;;;;;14.40;10.70;;;;;;;17.50;95.46;100403.59;5051977;28;20116;-71
2021/09/27 07:25:12;;;;;;;13.85;10.27;;;;;;;17.57;95.34;100412.03;5051913;28;20382;-70
2021/09/27 07:27:41;;;;;;;14.98;10.35;;;;;;;17.53;97.60;100408.72;5051794;28;20500;-70
2021/09/27 07:30:12;;;;;;;16.35;10.88;;;;;;;17.58;96.84;100406.50;5051909;28;20047;-69
2021/09/27 07:32:42;;;;;;;17.63;12.27;;;;;;;17.48;97.51;100416.38;5051800;28;20057;-69
2021/09/27 07:35:14;;;;;;;16.85;11.32;;;;;;;17.39;100.00;100427.94;5051987;28;20060;-69
2021/09/27 07:37:44;;;;;;;14.87;10.37;;;;;;;17.29;100.00;100418.94;5052286;28;20120;-69
2021/09/27 07:40:16;;;;;;;20.75;9.73;;;;;;;17.24;100.00;100418.47;5051857;28;20132;-70
2021/09/27 07:42:45;;;;;;;22.70;10.52;;;;;;;17.20;100.00;100411.63;5052247;28;20041;-70
2021/09/27 07:45:18;;;;;;;15.23;9.38;;;;;;;17.17;100.00;100407.34;5051974;28;20048;-71
2021/09/27 07:47:46;;;;;;;17.33;9.98;;;;;;;17.17;100.00;100408.19;5051045;28;20060;-70
2021/09/27 07:50:16;;;;;;;14.57;10.70;;;;;;;17.21;100.00;100400.72;5052093;28;20041;-70
2021/09/27 07:52:46;;;;;;;15.77;11.40;;;;;;;17.27;100.00;100400.16;5052649;28;20065;-69
2021/09/27 07:55:15;;;;;;;17.63;12.18;;;;;;;17.19;100.00;100396.44;5055567;28;20470;-70
2021/09/27 07:57:44;;;;;;;18.52;12.57;;;;;;;17.16;100.00;100394.84;5055809;28;20091;-70
2021/09/27 08:00:15;;;;;;;17.90;11.02;;;;;;;17.22;100.00;100394.34;5055746;28;20040;-70
2021/09/27 08:02:44;;;;;;;20.77;12.77;;;;;;;17.26;100.00;100394.91;5055755;28;20367;-70
2021/09/27 08:05:15;;;;;;;15.82;11.77;;;;;;;17.28;100.00;100393.81;5055592;28;20247;-70
2021/09/27 08:07:45;;;;;;;17.73;12.50;;;;;;;17.31;100.00;100392.69;5055685;28;20045;-70
2021/09/27 08:10:14;;;;;;;18.83;12.95;;;;;;;17.23;100.00;100387.97;5055686;28;20041;-70
2021/09/27 08:12:42;;;;;;;20.45;13.63;;;;;;;17.17;100.00;100396.56;5055479;28;20071;-69
2021/09/27 08:15:14;;;;;;;17.77;12.55;;;;;;;17.16;100.00;100386.75;5055492;28;20413;-69
2021/09/27 08:17:44;;;;;;;19.65;13.30;;;;;;;17.17;100.00;100385.78;5055409;28;20068;-70
2021/09/27 08:20:14;;;;;;;18.95;12.57;;;;;;;17.15;100.00;100382.38;5054553;28;20049;-69
2021/09/27 08:22:46;;;;;;;20.02;12.40;;;;;;;17.02;100.00;100387.94;5055648;28;20048;-70
2021/09/27 08:25:15;;;;;;;17.35;11.95;;;;;;;17.06;100.00;100384.00;5055533;28;20440;-69
2021/09/27 08:27:45;;;;;;;19.10;12.20;;;;;;;17.00;100.00;100389.06;5055334;28;20040;-70
2021/09/27 08:30:18;;;;;;;16.95;12.35;;;;;;;16.98;100.00;100397.25;5055152;28;20055;-70
2021/09/27 08:32:47;;;;;;;20.23;12.48;;;;;;;16.95;100.00;100392.16;5055180;28;20094;-70
2021/09/27 08:35:16;;;;;;;19.52;12.70;;;;;;;16.98;100.00;100391.88;5055235;28;20051;-69
2021/09/27 08:37:47;;;;;;;18.38;12.38;;;;;;;17.16;100.00;100381.38;5054963;28;20063;-69
2021/09/27 08:40:40;;;;;;;14.35;10.90;;;;;;;17.30;100.00;100386.44;5055010;28;20098;-70
2021/09/27 08:43:18;;;;;;;16.97;10.97;;;;;;;17.12;100.00;100383.50;5054835;28;20045;-69
2021/09/27 08:45:48;;;;;;;14.45;11.13;;;;;;;17.17;100.00;100383.06;5054618;28;20386;-69
2021/09/27 08:48:30;;;;;;;20.38;13.90;;;;;;;16.97;100.00;100374.00;5054344;28;20359;-69
2021/09/27 08:50:58;;;;;;;17.50;11.65;;;;;;;17.08;100.00;100367.69;5053838;28;20037;-69
2021/09/27 08:53:32;;;;;;;17.45;12.07;;;;;;;17.10;100.00;100369.28;5053925;28;20041;-69
2021/09/27 08:56:06;;;;;;;19.73;11.55;;;;;;;17.11;100.00;100373.69;5054165;28;20037;-69
2021/09/27 08:58:55;;;;;;;16.75;11.63;;;;;;;17.10;100.00;100374.69;5054005;28;20052;-69
2021/09/27 09:01:28;;;;;;;16.05;11.23;;;;;;;17.21;100.00;100370.22;5054004;28;20482;-70
2021/09/27 09:04:03;;;;;;;16.92;11.60;;;;;;;17.33;100.00;100374.53;5054440;28;20041;-69
2021/09/27 09:06:40;;;;;;;17.70;11.10;;;;;;;17.37;100.00;100374.16;5054029;28;20128;-70
2021/09/27 09:09:15;;;;;;;14.93;10.40;;;;;;;17.46;100.00;100376.03;5054273;28;20099;-69
2021/09/27 09:11:49;;;;;;;16.45;11.50;;;;;;;17.67;100.00;100378.72;5054080;28;20129;-69
2021/09/27 09:14:31;;;;;;;15.90;10.50;;;;;;;17.70;100.00;100373.06;5054546;28;20041;-69
2021/09/27 09:17:03;;;;;;;15.63;10.88;;;;;;;17.81;100.00;100372.13;5054683;28;20049;-69
2021/09/27 09:19:34;;;;;;;17.23;11.50;;;;;;;17.94;100.00;100374.59;5054082;28;20045;-69
2021/09/27 09:22:07;;;;;;;13.77;10.45;;;;;;;17.91;100.00;100364.06;5054388;28;20458;-69
2021/09/27 09:24:39;;;;;;;17.52;11.40;;;;;;;17.79;100.00;100363.31;5054087;28;20037;-69
2021/09/27 09:27:10;;;;;;;14.38;10.00;;;;;;;17.73;100.00;100362.00;5054237;28;20044;-69
2021/09/27 09:29:41;;;;;;;13.93;10.23;;;;;;;17.80;100.00;100361.47;5053690;28;20056;-69
2021/09/27 09:32:15;;;;;;;15.60;10.15;;;;;;;17.92;100.00;100354.97;5053500;28;20069;-69
2021/09/27 09:34:44;;;;;;;15.18;10.50;;;;;;;17.90;100.00;100352.44;5053291;28;20064;-69
2021/09/27 09:37:23;;;;;;;14.07;9.95;;;;;;;17.60;100.00;100347.88;5053771;28;20435;-68
2021/09/27 09:40:00;;;;;;;14.23;9.70;;;;;;;17.74;100.00;100336.72;5053892;28;20045;-69
2021/09/27 09:42:32;;;;;;;17.00;9.77;;;;;;;17.73;100.00;100353.91;5053718;28;20041;-69
2021/09/27 09:45:15;;;;;;;14.90;9.43;;;;;;;17.78;100.00;100349.97;5053692;28;20086;-69
2021/09/27 09:47:44;;;;;;;14.57;10.35;;;;;;;17.91;100.00;100339.78;5053384;28;20049;-68
2021/09/27 09:50:15;;;;;;;12.90;9.35;;;;;;;18.10;100.00;100331.75;5053642;28;20049;-69
2021/09/27 09:52:46;;;;;;;13.88;8.55;;;;;;;17.90;100.00;100327.28;5053188;28;20049;-69
2021/09/27 09:55:22;;;;;;;12.18;8.57;;;;;;;18.19;100.00;100330.91;5053364;28;20045;-69
2021/09/27 09:58:01;;;;;;;12.23;9.05;;;;;;;18.37;100.00;100328.38;5053708;28;20436;-69
2021/09/27 10:00:45;;;;;;;12.50;8.93;;;;;;;18.44;100.00;100329.53;5053478;28;20068;-69
2021/09/27 10:03:15;;;;;;;14.55;8.27;;;;;;;18.61;100.00;100319.84;5053337;28;20127;-69
2021/09/27 10:05:51;;;;;;;11.88;8.80;;;;;;;18.64;100.00;100330.41;5052954;28;20128;-69
2021/09/27 10:08:23;;;;;;;13.35;9.13;;;;;;;18.98;100.00;100322.72;5053301;28;20402;-69
2021/09/27 10:10:59;;;;;;;12.85;9.73;;;;;;;18.88;100.00;100322.72;5053560;28;20045;-69
2021/09/27 10:13:42;;;;;;;11.80;8.80;;;;;;;18.97;99.99;100325.56;5052955;28;20096;-69
2021/09/27 10:16:15;;;;;;;12.18;8.35;;;;;;;18.99;97.88;100321.72;5052266;28;20098;-69
2021/09/27 10:18:46;;;;;;;11.82;8.52;;;;;;;19.02;97.78;100317.88;5052535;28;20877;-69
2021/09/27 10:21:28;;;;;;;11.45;8.30;;;;;;;18.87;96.71;100317.47;5052818;28;20036;-69
2021/09/27 10:23:59;;;;;;;13.18;9.07;;;;;;;18.86;97.31;100313.91;5052708;28;20045;-69
2021/09/27 10:26:34;;;;;;;13.98;8.85;;;;;;;18.94;96.74;100309.66;5052473;28;20062;-69
2021/09/27 10:29:08;;;;;;;13.93;9.13;;;;;;;19.18;96.64;100307.31;5052560;28;20067;-69
2021/09/27 10:31:39;;;;;;;11.48;8.48;;;;;;;19.07;93.62;100299.38;5052451;28;20041;-70
2021/09/27 10:34:13;;;;;;;11.77;8.32;;;;;;;19.11;94.74;100303.50;5053092;28;20075;-69
2021/09/27 10:36:46;;;;;;;12.07;9.18;;;;;;;19.00;96.85;100299.09;5052259;28;20060;-70
2021/09/27 10:39:17;;;;;;;12.13;9.10;;;;;;;19.12;95.42;100291.69;5052138;28;20045;-70
2021/09/27 10:41:55;;;;;;;13.43;9.38;;;;;;;19.38;95.29;100292.72;5052146;28;20421;-70
2021/09/27 10:44:27;;;;;;;13.93;9.20;;;;;;;19.41;93.95;100289.75;5052251;28;20079;-70
2021/09/27 10:47:03;;;;;;;10.68;8.70;;;;;;;19.39;94.29;100283.59;5051948;28;20432;-70
2021/09/27 10:49:35;;;;;;;11.70;8.25;;;;;;;19.45;93.63;100293.84;5052043;28;20056;-70
2021/09/27 10:52:31;;;;;;;12.65;8.25;;;;;;;19.17;92.89;100283.97;5052528;28;20037;-70
2021/09/27 10:55:09;;;;;;;10.63;8.00;;;;;;;19.43;91.83;100279.63;5052594;28;20041;-70
2021/09/27 10:57:46;;;;;;;10.90;8.57;;;;;;;19.71;93.12;100276.97;5052386;28;20479;-70
2021/09/27 11:00:28;;;;;;;10.63;8.75;;;;;;;19.96;91.81;100286.22;5052559;28;20399;-70
2021/09/27 11:03:02;;;;;;;14.45;8.38;;;;;;;20.13;89.62;100287.25;5052656;28;20440;-70
2021/09/27 11:05:44;;;;;;;11.45;8.43;;;;;;;20.03;86.72;100281.91;5052229;28;20437;-70
2021/09/27 11:08:14;;;;;;;12.73;7.93;;;;;;;20.21;88.14;100281.94;5052517;28;20092;-70
2021/09/27 11:10:46;;;;;;;11.35;7.78;;;;;;;20.35;86.28;100278.69;5052210;28;20044;-70
2021/09/27 11:13:37;;;;;;;13.25;8.23;;;;;;;20.26;86.53;100279.59;5052348;28;20064;-70
2021/09/27 11:16:15;;;;;;;10.90;7.80;;;;;;;20.30;85.01;100273.75;5052430;28;20045;-70
2021/09/27 11:18:54;;;;;;;13.52;8.40;;;;;;;20.53;85.32;100266.00;5052435;28;20100;-70
2021/09/27 11:21:41;;;;;;;12.38;8.02;;;;;;;20.53;83.96;100266.00;5052724;28;20478;-70
2021/09/27 11:24:45;;;;;;;9.65;7.28;;;;;;;20.75;84.30;100261.09;5052624;28;20111;-70
2021/09/27 11:27:27;;;;;;;13.25;7.43;;;;;;;20.94;83.96;100262.78;5052433;28;20045;-70
2021/09/27 11:29:59;;;;;;;11.25;7.75;;;;;;;20.71;84.56;100266.00;5056526;28;20132;-70
2021/09/27 11:32:46;;;;;;;10.95;7.70;;;;;;;20.80;83.44;100259.63;5056230;28;20110;-70
2021/09/27 11:35:36;;;;;;;12.32;7.55;;;;;;;20.86;82.91;100255.44;5055977;28;20057;-71
2021/09/27 11:38:30;;;;;;;11.10;7.80;;;;;;;20.90;82.36;100256.81;5056233;28;20075;-70
2021/09/27 11:41:27;;;;;;;12.07;7.85;;;;;;;20.70;82.35;100258.88;5056178;28;20045;-70
2021/09/27 11:44:14;;;;;;;11.27;7.90;;;;;;;20.39;83.74;100261.13;5055304;28;20158;-70
2021/09/27 11:46:58;;;;;;;10.98;7.60;;;;;;;20.64;83.94;100258.66;5055708;28;20053;-70
2021/09/27 11:49:47;;;;;;;12.05;7.40;;;;;;;20.60;84.93;100252.69;5055954;28;20072;-70
2021/09/27 11:52:21;;;;;;;9.00;7.13;;;;;;;20.70;83.05;100258.03;5056041;28;20037;-70
2021/09/27 11:54:55;;;;;;;11.48;7.65;;;;;;;20.79;83.23;100260.66;5055798;28;20090;-70
2021/09/27 11:57:30;;;;;;;10.25;7.35;;;;;;;20.82;83.35;100263.03;5055886;28;20052;-70